Ktima, Cyprus
Current Conditions -  °F | °C
As of 1:00 AM on Saturday 29 Nov 2014 (Local Time) from LCPH Reporting Station
Broken Clouds Broken Clouds  
Wind Chill: 57°   Ceiling: 6000
Heat Index: 57°   Visibility: 6mi
Dew Point: 50°   Wind: 8mph
Humidity: 77%   Direction: 20°NNE
Pressure: 30.24"   Gusts: NA
Location:  34.76°N, 32.42°E
Report Text: LCPH 282200Z 02007KT 9999 FEW030 SCT040 BKN060 14/10 Q1024
Loading
Personal Weather Stations






























Interactive Weather Map New forecast layout! Learn more

10-Day Weather Forecast

Advertisements
Track Severe Weather on mobile